sensor_id;sensor_type;location;lat;lon;timestamp;P1;durP1;ratioP1;P2;durP2;ratioP2
53545;SDS011;39432;51.902;10.844;2022-12-05T00:02:26;51.65;;;17.30;;
53545;SDS011;39432;51.902;10.844;2022-12-05T00:04:59;33.15;;;15.18;;
53545;SDS011;39432;51.902;10.844;2022-12-05T00:07:29;35.60;;;15.10;;
53545;SDS011;39432;51.902;10.844;2022-12-05T00:09:58;50.70;;;17.50;;
53545;SDS011;39432;51.902;10.844;2022-12-05T00:12:29;32.80;;;15.20;;
53545;SDS011;39432;51.902;10.844;2022-12-05T00:14:59;41.72;;;16.13;;
53545;SDS011;39432;51.902;10.844;2022-12-05T00:17:30;42.22;;;15.85;;
53545;SDS011;39432;51.902;10.844;2022-12-05T00:20:02;42.00;;;16.40;;
53545;SDS011;39432;51.902;10.844;2022-12-05T00:22:34;39.97;;;15.63;;
53545;SDS011;39432;51.902;10.844;2022-12-05T00:25:05;35.40;;;15.48;;
53545;SDS011;39432;51.902;10.844;2022-12-05T00:27:36;33.60;;;14.98;;
53545;SDS011;39432;51.902;10.844;2022-12-05T00:30:06;31.38;;;14.43;;
53545;SDS011;39432;51.902;10.844;2022-12-05T00:32:36;28.08;;;14.25;;
53545;SDS011;39432;51.902;10.844;2022-12-05T00:35:09;30.73;;;15.60;;
53545;SDS011;39432;51.902;10.844;2022-12-05T00:37:39;38.75;;;16.00;;
53545;SDS011;39432;51.902;10.844;2022-12-05T00:40:09;31.25;;;14.18;;
53545;SDS011;39432;51.902;10.844;2022-12-05T00:42:39;40.72;;;15.45;;
53545;SDS011;39432;51.902;10.844;2022-12-05T00:45:14;25.95;;;14.40;;
53545;SDS011;39432;51.902;10.844;2022-12-05T00:47:44;28.38;;;14.40;;
53545;SDS011;39432;51.902;10.844;2022-12-05T00:50:17;32.20;;;15.18;;
53545;SDS011;39432;51.902;10.844;2022-12-05T00:52:47;36.05;;;15.30;;
53545;SDS011;39432;51.902;10.844;2022-12-05T00:55:16;40.22;;;15.23;;
53545;SDS011;39432;51.902;10.844;2022-12-05T00:57:48;36.88;;;15.07;;
53545;SDS011;39432;51.902;10.844;2022-12-05T01:00:18;27.10;;;14.02;;
53545;SDS011;39432;51.902;10.844;2022-12-05T01:02:48;34.80;;;15.30;;
53545;SDS011;39432;51.902;10.844;2022-12-05T01:05:20;29.70;;;15.05;;
53545;SDS011;39432;51.902;10.844;2022-12-05T01:07:50;25.30;;;14.15;;
53545;SDS011;39432;51.902;10.844;2022-12-05T01:10:20;30.10;;;14.25;;
53545;SDS011;39432;51.902;10.844;2022-12-05T01:12:50;26.80;;;14.27;;
53545;SDS011;39432;51.902;10.844;2022-12-05T01:15:19;24.52;;;13.60;;
53545;SDS011;39432;51.902;10.844;2022-12-05T01:17:49;27.58;;;13.52;;
53545;SDS011;39432;51.902;10.844;2022-12-05T01:20:22;23.80;;;12.68;;
53545;SDS011;39432;51.902;10.844;2022-12-05T01:22:51;29.10;;;14.40;;
53545;SDS011;39432;51.902;10.844;2022-12-05T01:25:21;29.70;;;13.90;;
53545;SDS011;39432;51.902;10.844;2022-12-05T01:27:52;26.17;;;13.27;;
53545;SDS011;39432;51.902;10.844;2022-12-05T01:30:22;27.02;;;13.95;;
53545;SDS011;39432;51.902;10.844;2022-12-05T01:32:51;25.42;;;12.65;;
53545;SDS011;39432;51.902;10.844;2022-12-05T01:35:24;26.13;;;13.70;;
53545;SDS011;39432;51.902;10.844;2022-12-05T01:37:54;26.45;;;13.48;;
53545;SDS011;39432;51.902;10.844;2022-12-05T01:40:24;22.60;;;12.48;;
53545;SDS011;39432;51.902;10.844;2022-12-05T01:42:54;21.42;;;12.07;;
53545;SDS011;39432;51.902;10.844;2022-12-05T01:45:25;22.42;;;12.48;;
53545;SDS011;39432;51.902;10.844;2022-12-05T01:48:02;23.58;;;12.85;;
53545;SDS011;39432;51.902;10.844;2022-12-05T01:50:38;18.83;;;10.45;;
53545;SDS011;39432;51.902;10.844;2022-12-05T01:53:08;21.67;;;11.52;;
53545;SDS011;39432;51.902;10.844;2022-12-05T01:55:38;21.20;;;11.93;;
53545;SDS011;39432;51.902;10.844;2022-12-05T01:58:08;18.83;;;10.88;;
53545;SDS011;39432;51.902;10.844;2022-12-05T02:00:40;23.75;;;11.88;;
53545;SDS011;39432;51.902;10.844;2022-12-05T02:03:11;19.45;;;11.20;;
53545;SDS011;39432;51.902;10.844;2022-12-05T02:05:48;19.58;;;11.73;;
53545;SDS011;39432;51.902;10.844;2022-12-05T02:08:20;19.77;;;11.50;;
53545;SDS011;39432;51.902;10.844;2022-12-05T02:10:52;19.33;;;11.07;;
53545;SDS011;39432;51.902;10.844;2022-12-05T02:13:30;20.38;;;11.63;;
53545;SDS011;39432;51.902;10.844;2022-12-05T02:16:10;21.10;;;10.70;;
53545;SDS011;39432;51.902;10.844;2022-12-05T02:18:50;16.08;;;9.68;;
53545;SDS011;39432;51.902;10.844;2022-12-05T02:21:43;26.25;;;12.05;;
53545;SDS011;39432;51.902;10.844;2022-12-05T02:24:45;20.05;;;10.52;;
53545;SDS011;39432;51.902;10.844;2022-12-05T02:27:30;19.30;;;10.93;;
53545;SDS011;39432;51.902;10.844;2022-12-05T02:30:21;16.52;;;9.95;;
53545;SDS011;39432;51.902;10.844;2022-12-05T02:32:58;21.92;;;11.40;;
53545;SDS011;39432;51.902;10.844;2022-12-05T02:35:38;16.10;;;10.60;;
53545;SDS011;39432;51.902;10.844;2022-12-05T02:38:15;28.27;;;12.07;;
53545;SDS011;39432;51.902;10.844;2022-12-05T02:40:53;16.63;;;10.10;;
53545;SDS011;39432;51.902;10.844;2022-12-05T02:43:30;16.45;;;10.25;;
53545;SDS011;39432;51.902;10.844;2022-12-05T02:46:08;16.42;;;9.70;;
53545;SDS011;39432;51.902;10.844;2022-12-05T02:48:41;16.70;;;10.05;;
53545;SDS011;39432;51.902;10.844;2022-12-05T02:51:16;18.63;;;10.38;;
53545;SDS011;39432;51.902;10.844;2022-12-05T02:53:49;16.90;;;10.52;;
53545;SDS011;39432;51.902;10.844;2022-12-05T02:56:21;19.50;;;10.27;;
53545;SDS011;39432;51.902;10.844;2022-12-05T02:58:53;15.43;;;10.10;;
53545;SDS011;39432;51.902;10.844;2022-12-05T03:01:27;15.85;;;9.88;;
53545;SDS011;39432;51.902;10.844;2022-12-05T03:04:00;17.63;;;10.77;;
53545;SDS011;39432;51.902;10.844;2022-12-05T03:06:33;16.10;;;9.60;;
53545;SDS011;39432;51.902;10.844;2022-12-05T03:09:08;14.52;;;10.00;;
53545;SDS011;39432;51.902;10.844;2022-12-05T03:11:43;13.80;;;9.13;;
53545;SDS011;39432;51.902;10.844;2022-12-05T03:14:16;17.02;;;8.95;;
53545;SDS011;39432;51.902;10.844;2022-12-05T03:16:53;33.15;;;12.45;;
53545;SDS011;39432;51.902;10.844;2022-12-05T03:19:28;19.00;;;9.45;;
53545;SDS011;39432;51.902;10.844;2022-12-05T03:22:05;13.93;;;8.88;;
53545;SDS011;39432;51.902;10.844;2022-12-05T03:24:37;15.30;;;10.02;;
53545;SDS011;39432;51.902;10.844;2022-12-05T03:27:10;17.50;;;9.80;;
53545;SDS011;39432;51.902;10.844;2022-12-05T03:29:50;13.13;;;8.98;;
53545;SDS011;39432;51.902;10.844;2022-12-05T03:32:31;18.95;;;10.25;;
53545;SDS011;39432;51.902;10.844;2022-12-05T03:35:06;13.75;;;9.10;;
53545;SDS011;39432;51.902;10.844;2022-12-05T03:37:44;14.48;;;8.85;;
53545;SDS011;39432;51.902;10.844;2022-12-05T03:40:22;17.98;;;10.00;;
53545;SDS011;39432;51.902;10.844;2022-12-05T03:42:59;16.65;;;9.52;;
53545;SDS011;39432;51.902;10.844;2022-12-05T03:45:39;16.30;;;9.38;;
53545;SDS011;39432;51.902;10.844;2022-12-05T03:48:17;14.73;;;8.90;;
53545;SDS011;39432;51.902;10.844;2022-12-05T03:50:54;18.08;;;9.68;;
53545;SDS011;39432;51.902;10.844;2022-12-05T03:53:27;13.45;;;8.63;;
53545;SDS011;39432;51.902;10.844;2022-12-05T03:56:01;13.93;;;8.30;;
53545;SDS011;39432;51.902;10.844;2022-12-05T03:58:35;13.43;;;8.60;;
53545;SDS011;39432;51.902;10.844;2022-12-05T04:01:08;11.32;;;7.78;;
53545;SDS011;39432;51.902;10.844;2022-12-05T04:03:45;12.27;;;7.82;;
53545;SDS011;39432;51.902;10.844;2022-12-05T04:06:20;12.98;;;8.20;;
53545;SDS011;39432;51.902;10.844;2022-12-05T04:08:54;13.60;;;8.57;;
53545;SDS011;39432;51.902;10.844;2022-12-05T04:11:29;11.00;;;7.45;;
53545;SDS011;39432;51.902;10.844;2022-12-05T04:14:02;11.77;;;7.65;;
53545;SDS011;39432;51.902;10.844;2022-12-05T04:16:37;13.75;;;9.02;;
53545;SDS011;39432;51.902;10.844;2022-12-05T04:19:27;12.45;;;8.20;;
53545;SDS011;39432;51.902;10.844;2022-12-05T04:22:21;13.25;;;8.38;;
53545;SDS011;39432;51.902;10.844;2022-12-05T04:24:50;11.95;;;7.75;;
53545;SDS011;39432;51.902;10.844;2022-12-05T04:27:37;13.60;;;8.60;;
53545;SDS011;39432;51.902;10.844;2022-12-05T04:32:44;11.63;;;7.40;;
53545;SDS011;39432;51.902;10.844;2022-12-05T04:35:21;10.68;;;7.72;;
53545;SDS011;39432;51.902;10.844;2022-12-05T04:37:57;10.00;;;6.88;;
53545;SDS011;39432;51.902;10.844;2022-12-05T04:40:32;10.60;;;7.45;;
53545;SDS011;39432;51.902;10.844;2022-12-05T04:43:06;11.40;;;8.30;;
53545;SDS011;39432;51.902;10.844;2022-12-05T04:45:39;11.90;;;7.57;;
53545;SDS011;39432;51.902;10.844;2022-12-05T04:48:10;10.23;;;6.68;;
53545;SDS011;39432;51.902;10.844;2022-12-05T04:50:46;9.13;;;6.85;;
53545;SDS011;39432;51.902;10.844;2022-12-05T04:53:19;8.60;;;6.43;;
53545;SDS011;39432;51.902;10.844;2022-12-05T04:55:54;10.02;;;6.97;;
53545;SDS011;39432;51.902;10.844;2022-12-05T04:58:26;13.98;;;8.30;;
53545;SDS011;39432;51.902;10.844;2022-12-05T05:01:00;10.63;;;7.32;;
53545;SDS011;39432;51.902;10.844;2022-12-05T05:03:34;11.63;;;7.70;;
53545;SDS011;39432;51.902;10.844;2022-12-05T05:06:11;11.48;;;7.70;;
53545;SDS011;39432;51.902;10.844;2022-12-05T05:08:45;8.93;;;6.35;;
53545;SDS011;39432;51.902;10.844;2022-12-05T05:11:17;15.00;;;8.35;;
53545;SDS011;39432;51.902;10.844;2022-12-05T05:13:48;11.80;;;8.18;;
53545;SDS011;39432;51.902;10.844;2022-12-05T05:16:19;10.02;;;6.63;;
53545;SDS011;39432;51.902;10.844;2022-12-05T05:18:50;10.00;;;6.93;;
53545;SDS011;39432;51.902;10.844;2022-12-05T05:21:24;11.77;;;7.47;;
53545;SDS011;39432;51.902;10.844;2022-12-05T05:23:55;11.98;;;7.45;;
53545;SDS011;39432;51.902;10.844;2022-12-05T05:26:26;9.48;;;6.68;;
53545;SDS011;39432;51.902;10.844;2022-12-05T05:28:57;9.60;;;6.82;;
53545;SDS011;39432;51.902;10.844;2022-12-05T05:31:27;9.25;;;6.75;;
53545;SDS011;39432;51.902;10.844;2022-12-05T05:33:57;10.07;;;7.20;;
53545;SDS011;39432;51.902;10.844;2022-12-05T05:36:37;9.75;;;6.63;;
53545;SDS011;39432;51.902;10.844;2022-12-05T05:39:10;8.15;;;5.95;;
53545;SDS011;39432;51.902;10.844;2022-12-05T05:41:41;8.95;;;6.78;;
53545;SDS011;39432;51.902;10.844;2022-12-05T05:44:11;10.65;;;7.22;;
53545;SDS011;39432;51.902;10.844;2022-12-05T05:46:41;12.05;;;7.07;;
53545;SDS011;39432;51.902;10.844;2022-12-05T05:49:11;10.25;;;7.13;;
53545;SDS011;39432;51.902;10.844;2022-12-05T05:51:43;8.98;;;6.32;;
53545;SDS011;39432;51.902;10.844;2022-12-05T05:54:13;13.52;;;8.40;;
53545;SDS011;39432;51.902;10.844;2022-12-05T05:56:43;9.85;;;6.78;;
53545;SDS011;39432;51.902;10.844;2022-12-05T05:59:13;9.82;;;7.10;;
53545;SDS011;39432;51.902;10.844;2022-12-05T06:01:42;14.23;;;7.80;;
53545;SDS011;39432;51.902;10.844;2022-12-05T06:04:12;9.07;;;6.72;;
53545;SDS011;39432;51.902;10.844;2022-12-05T06:06:45;10.10;;;6.25;;
53545;SDS011;39432;51.902;10.844;2022-12-05T06:09:14;9.35;;;6.63;;
53545;SDS011;39432;51.902;10.844;2022-12-05T06:11:44;13.00;;;6.78;;
53545;SDS011;39432;51.902;10.844;2022-12-05T06:14:14;10.00;;;6.28;;
53545;SDS011;39432;51.902;10.844;2022-12-05T06:16:44;10.68;;;7.50;;
53545;SDS011;39432;51.902;10.844;2022-12-05T06:19:14;11.48;;;6.78;;
53545;SDS011;39432;51.902;10.844;2022-12-05T06:21:46;8.00;;;6.00;;
53545;SDS011;39432;51.902;10.844;2022-12-05T06:24:17;7.95;;;5.90;;
53545;SDS011;39432;51.902;10.844;2022-12-05T06:26:47;11.05;;;7.18;;
53545;SDS011;39432;51.902;10.844;2022-12-05T06:29:16;13.27;;;8.38;;
53545;SDS011;39432;51.902;10.844;2022-12-05T06:31:51;13.93;;;8.20;;
53545;SDS011;39432;51.902;10.844;2022-12-05T06:34:21;9.32;;;6.10;;
53545;SDS011;39432;51.902;10.844;2022-12-05T06:36:53;7.68;;;5.60;;
53545;SDS011;39432;51.902;10.844;2022-12-05T06:39:23;8.40;;;5.88;;
53545;SDS011;39432;51.902;10.844;2022-12-05T06:41:53;9.13;;;6.47;;
53545;SDS011;39432;51.902;10.844;2022-12-05T06:44:23;8.68;;;5.85;;
53545;SDS011;39432;51.902;10.844;2022-12-05T06:46:54;8.88;;;5.78;;
53545;SDS011;39432;51.902;10.844;2022-12-05T06:49:24;9.60;;;6.18;;
53545;SDS011;39432;51.902;10.844;2022-12-05T06:52:05;14.35;;;8.65;;
53545;SDS011;39432;51.902;10.844;2022-12-05T06:54:35;10.23;;;6.07;;
53545;SDS011;39432;51.902;10.844;2022-12-05T06:57:05;8.10;;;5.65;;
53545;SDS011;39432;51.902;10.844;2022-12-05T06:59:35;9.65;;;6.68;;
53545;SDS011;39432;51.902;10.844;2022-12-05T07:02:05;6.18;;;4.85;;
53545;SDS011;39432;51.902;10.844;2022-12-05T07:04:34;6.85;;;5.20;;
53545;SDS011;39432;51.902;10.844;2022-12-05T07:07:06;7.78;;;5.45;;
53545;SDS011;39432;51.902;10.844;2022-12-05T07:09:38;6.65;;;4.85;;
53545;SDS011;39432;51.902;10.844;2022-12-05T07:12:15;6.97;;;5.18;;
53545;SDS011;39432;51.902;10.844;2022-12-05T07:14:46;9.63;;;6.10;;
53545;SDS011;39432;51.902;10.844;2022-12-05T07:17:16;5.10;;;4.35;;
53545;SDS011;39432;51.902;10.844;2022-12-05T07:19:46;6.32;;;4.93;;
53545;SDS011;39432;51.902;10.844;2022-12-05T07:22:20;7.05;;;5.10;;
53545;SDS011;39432;51.902;10.844;2022-12-05T07:24:51;7.90;;;5.22;;
53545;SDS011;39432;51.902;10.844;2022-12-05T07:27:21;9.07;;;5.70;;
53545;SDS011;39432;51.902;10.844;2022-12-05T07:29:53;6.97;;;5.38;;
53545;SDS011;39432;51.902;10.844;2022-12-05T07:32:24;7.30;;;5.55;;
53545;SDS011;39432;51.902;10.844;2022-12-05T07:34:53;9.60;;;6.05;;
53545;SDS011;39432;51.902;10.844;2022-12-05T07:37:26;9.82;;;6.20;;
53545;SDS011;39432;51.902;10.844;2022-12-05T07:39:56;8.45;;;5.75;;
53545;SDS011;39432;51.902;10.844;2022-12-05T07:42:26;6.90;;;4.95;;
53545;SDS011;39432;51.902;10.844;2022-12-05T07:44:56;6.65;;;4.95;;
53545;SDS011;39432;51.902;10.844;2022-12-05T07:47:25;6.10;;;4.80;;
53545;SDS011;39432;51.902;10.844;2022-12-05T07:49:57;6.53;;;4.28;;
53545;SDS011;39432;51.902;10.844;2022-12-05T07:52:30;6.40;;;4.65;;
53545;SDS011;39432;51.902;10.844;2022-12-05T07:55:00;8.55;;;5.05;;
53545;SDS011;39432;51.902;10.844;2022-12-05T07:57:30;7.18;;;5.40;;
53545;SDS011;39432;51.902;10.844;2022-12-05T08:00:00;8.60;;;6.20;;
53545;SDS011;39432;51.902;10.844;2022-12-05T08:02:38;6.57;;;4.63;;
53545;SDS011;39432;51.902;10.844;2022-12-05T08:05:08;6.65;;;4.97;;
53545;SDS011;39432;51.902;10.844;2022-12-05T08:07:40;11.50;;;5.65;;
53545;SDS011;39432;51.902;10.844;2022-12-05T08:10:11;7.30;;;5.38;;
53545;SDS011;39432;51.902;10.844;2022-12-05T08:12:41;8.25;;;5.50;;
53545;SDS011;39432;51.902;10.844;2022-12-05T08:15:10;13.88;;;7.97;;
53545;SDS011;39432;51.902;10.844;2022-12-05T08:17:40;10.75;;;6.20;;
53545;SDS011;39432;51.902;10.844;2022-12-05T08:20:11;11.77;;;7.30;;
53545;SDS011;39432;51.902;10.844;2022-12-05T08:22:44;7.95;;;6.15;;
53545;SDS011;39432;51.902;10.844;2022-12-05T08:25:13;14.63;;;9.05;;
53545;SDS011;39432;51.902;10.844;2022-12-05T08:27:43;15.50;;;8.25;;
53545;SDS011;39432;51.902;10.844;2022-12-05T08:30:13;15.20;;;9.13;;
53545;SDS011;39432;51.902;10.844;2022-12-05T08:32:43;11.95;;;8.50;;
53545;SDS011;39432;51.902;10.844;2022-12-05T08:35:13;16.30;;;10.52;;
53545;SDS011;39432;51.902;10.844;2022-12-05T08:37:45;32.03;;;14.80;;
53545;SDS011;39432;51.902;10.844;2022-12-05T08:40:15;30.00;;;16.95;;
53545;SDS011;39432;51.902;10.844;2022-12-05T08:42:45;19.83;;;13.70;;
53545;SDS011;39432;51.902;10.844;2022-12-05T08:45:15;31.95;;;16.10;;
53545;SDS011;39432;51.902;10.844;2022-12-05T08:47:45;21.38;;;12.95;;
53545;SDS011;39432;51.902;10.844;2022-12-05T08:50:15;28.27;;;17.42;;
53545;SDS011;39432;51.902;10.844;2022-12-05T08:52:47;25.05;;;13.48;;
53545;SDS011;39432;51.902;10.844;2022-12-05T08:55:17;25.00;;;16.45;;
53545;SDS011;39432;51.902;10.844;2022-12-05T08:57:47;12.05;;;7.38;;
53545;SDS011;39432;51.902;10.844;2022-12-05T09:00:17;6.85;;;5.40;;
53545;SDS011;39432;51.902;10.844;2022-12-05T09:02:48;10.25;;;6.82;;
53545;SDS011;39432;51.902;10.844;2022-12-05T09:05:19;14.48;;;9.77;;
53545;SDS011;39432;51.902;10.844;2022-12-05T09:07:57;14.55;;;7.80;;
53545;SDS011;39432;51.902;10.844;2022-12-05T09:10:27;9.60;;;6.47;;
53545;SDS011;39432;51.902;10.844;2022-12-05T09:12:57;9.63;;;6.68;;
53545;SDS011;39432;51.902;10.844;2022-12-05T09:15:27;6.50;;;4.45;;
53545;SDS011;39432;51.902;10.844;2022-12-05T09:17:56;6.50;;;4.15;;
53545;SDS011;39432;51.902;10.844;2022-12-05T09:20:26;6.25;;;4.25;;
53545;SDS011;39432;51.902;10.844;2022-12-05T09:22:58;9.32;;;6.05;;
53545;SDS011;39432;51.902;10.844;2022-12-05T09:25:28;5.82;;;4.07;;
53545;SDS011;39432;51.902;10.844;2022-12-05T09:27:58;10.30;;;5.70;;
53545;SDS011;39432;51.902;10.844;2022-12-05T09:30:28;6.85;;;4.15;;
53545;SDS011;39432;51.902;10.844;2022-12-05T09:32:57;9.00;;;5.18;;
53545;SDS011;39432;51.902;10.844;2022-12-05T09:35:27;7.30;;;5.13;;
53545;SDS011;39432;51.902;10.844;2022-12-05T09:37:59;7.18;;;5.28;;
53545;SDS011;39432;51.902;10.844;2022-12-05T09:40:29;7.97;;;4.97;;
53545;SDS011;39432;51.902;10.844;2022-12-05T09:43:01;8.35;;;5.70;;
53545;SDS011;39432;51.902;10.844;2022-12-05T09:45:36;12.30;;;7.15;;
53545;SDS011;39432;51.902;10.844;2022-12-05T09:48:12;11.35;;;7.13;;
53545;SDS011;39432;51.902;10.844;2022-12-05T09:50:45;9.70;;;6.10;;
53545;SDS011;39432;51.902;10.844;2022-12-05T09:53:25;10.40;;;7.30;;
53545;SDS011;39432;51.902;10.844;2022-12-05T09:56:00;9.27;;;6.75;;
53545;SDS011;39432;51.902;10.844;2022-12-05T09:58:37;9.68;;;6.65;;
53545;SDS011;39432;51.902;10.844;2022-12-05T10:01:17;10.27;;;7.13;;
53545;SDS011;39432;51.902;10.844;2022-12-05T10:04:05;13.40;;;9.45;;
53545;SDS011;39432;51.902;10.844;2022-12-05T10:07:02;26.95;;;17.13;;
53545;SDS011;39432;51.902;10.844;2022-12-05T10:09:50;40.70;;;24.45;;
53545;SDS011;39432;51.902;10.844;2022-12-05T10:12:34;15.30;;;9.35;;
53545;SDS011;39432;51.902;10.844;2022-12-05T10:15:13;11.45;;;7.85;;
53545;SDS011;39432;51.902;10.844;2022-12-05T10:17:49;13.88;;;7.57;;
53545;SDS011;39432;51.902;10.844;2022-12-05T10:20:26;14.70;;;9.20;;
53545;SDS011;39432;51.902;10.844;2022-12-05T10:23:02;12.13;;;8.35;;
53545;SDS011;39432;51.902;10.844;2022-12-05T10:25:36;14.10;;;9.82;;
53545;SDS011;39432;51.902;10.844;2022-12-05T10:28:10;34.88;;;21.50;;
53545;SDS011;39432;51.902;10.844;2022-12-05T10:30:45;26.13;;;16.35;;
53545;SDS011;39432;51.902;10.844;2022-12-05T10:33:18;13.73;;;9.57;;
53545;SDS011;39432;51.902;10.844;2022-12-05T10:35:52;9.23;;;6.75;;
53545;SDS011;39432;51.902;10.844;2022-12-05T10:38:22;12.57;;;8.88;;
53545;SDS011;39432;51.902;10.844;2022-12-05T10:40:59;15.50;;;10.27;;
53545;SDS011;39432;51.902;10.844;2022-12-05T10:43:33;9.48;;;6.18;;
53545;SDS011;39432;51.902;10.844;2022-12-05T10:46:05;9.73;;;6.47;;
53545;SDS011;39432;51.902;10.844;2022-12-05T10:48:42;10.45;;;6.93;;
53545;SDS011;39432;51.902;10.844;2022-12-05T10:51:12;11.40;;;7.40;;
53545;SDS011;39432;51.902;10.844;2022-12-05T10:53:46;9.43;;;6.28;;
53545;SDS011;39432;51.902;10.844;2022-12-05T10:59:11;8.65;;;5.72;;
53545;SDS011;39432;51.902;10.844;2022-12-05T11:01:44;10.25;;;7.32;;
53545;SDS011;39432;51.902;10.844;2022-12-05T11:04:18;7.82;;;5.70;;
53545;SDS011;39432;51.902;10.844;2022-12-05T11:06:52;8.48;;;6.55;;
53545;SDS011;39432;51.902;10.844;2022-12-05T11:09:25;10.52;;;6.93;;
53545;SDS011;39432;51.902;10.844;2022-12-05T11:12:02;13.20;;;7.20;;
53545;SDS011;39432;51.902;10.844;2022-12-05T11:14:59;13.88;;;6.95;;
53545;SDS011;39432;51.902;10.844;2022-12-05T11:17:32;14.40;;;8.18;;
53545;SDS011;39432;51.902;10.844;2022-12-05T11:20:29;14.45;;;7.72;;
53545;SDS011;39432;51.902;10.844;2022-12-05T11:23:15;10.35;;;6.65;;
53545;SDS011;39432;51.902;10.844;2022-12-05T11:25:50;16.00;;;7.80;;
53545;SDS011;39432;51.902;10.844;2022-12-05T11:28:28;11.05;;;7.93;;
53545;SDS011;39432;51.902;10.844;2022-12-05T11:31:01;11.25;;;7.43;;
53545;SDS011;39432;51.902;10.844;2022-12-05T11:33:34;17.08;;;8.32;;
53545;SDS011;39432;51.902;10.844;2022-12-05T11:36:08;11.73;;;7.50;;
53545;SDS011;39432;51.902;10.844;2022-12-05T11:38:44;16.83;;;8.77;;
53545;SDS011;39432;51.902;10.844;2022-12-05T11:41:33;12.70;;;6.28;;
53545;SDS011;39432;51.902;10.844;2022-12-05T11:47:27;9.98;;;6.57;;
53545;SDS011;39432;51.902;10.844;2022-12-05T11:50:13;15.93;;;8.73;;
53545;SDS011;39432;51.902;10.844;2022-12-05T11:52:56;34.95;;;11.05;;
53545;SDS011;39432;51.902;10.844;2022-12-05T11:55:36;18.77;;;8.13;;
53545;SDS011;39432;51.902;10.844;2022-12-05T11:58:17;11.55;;;7.32;;
53545;SDS011;39432;51.902;10.844;2022-12-05T12:01:05;12.23;;;7.47;;
53545;SDS011;39432;51.902;10.844;2022-12-05T12:03:57;9.05;;;5.25;;
53545;SDS011;39432;51.902;10.844;2022-12-05T12:06:41;16.25;;;9.02;;
53545;SDS011;39432;51.902;10.844;2022-12-05T12:09:24;19.23;;;8.80;;
53545;SDS011;39432;51.902;10.844;2022-12-05T12:12:04;17.77;;;8.88;;
53545;SDS011;39432;51.902;10.844;2022-12-05T12:14:43;11.63;;;6.90;;
53545;SDS011;39432;51.902;10.844;2022-12-05T12:17:23;13.15;;;8.23;;
53545;SDS011;39432;51.902;10.844;2022-12-05T12:20:01;11.20;;;7.28;;
53545;SDS011;39432;51.902;10.844;2022-12-05T12:22:46;12.57;;;7.72;;
53545;SDS011;39432;51.902;10.844;2022-12-05T12:25:26;11.43;;;7.03;;
53545;SDS011;39432;51.902;10.844;2022-12-05T12:28:14;11.27;;;7.50;;
53545;SDS011;39432;51.902;10.844;2022-12-05T12:30:59;14.73;;;8.55;;
53545;SDS011;39432;51.902;10.844;2022-12-05T12:33:38;17.88;;;9.57;;
53545;SDS011;39432;51.902;10.844;2022-12-05T12:36:15;19.92;;;10.10;;
53545;SDS011;39432;51.902;10.844;2022-12-05T12:38:59;15.35;;;9.23;;
53545;SDS011;39432;51.902;10.844;2022-12-05T12:41:51;27.75;;;11.43;;
53545;SDS011;39432;51.902;10.844;2022-12-05T12:44:37;23.70;;;9.57;;
53545;SDS011;39432;51.902;10.844;2022-12-05T12:47:29;16.20;;;8.45;;
53545;SDS011;39432;51.902;10.844;2022-12-05T12:50:12;21.00;;;10.90;;
53545;SDS011;39432;51.902;10.844;2022-12-05T12:55:52;16.33;;;8.38;;
53545;SDS011;39432;51.902;10.844;2022-12-05T12:58:36;14.32;;;8.70;;
53545;SDS011;39432;51.902;10.844;2022-12-05T13:01:15;13.20;;;8.00;;
53545;SDS011;39432;51.902;10.844;2022-12-05T13:03:57;10.85;;;7.15;;
53545;SDS011;39432;51.902;10.844;2022-12-05T13:09:10;11.05;;;7.30;;
53545;SDS011;39432;51.902;10.844;2022-12-05T13:11:46;13.57;;;8.63;;
53545;SDS011;39432;51.902;10.844;2022-12-05T13:14:19;18.63;;;9.88;;
53545;SDS011;39432;51.902;10.844;2022-12-05T13:16:53;15.40;;;8.73;;
53545;SDS011;39432;51.902;10.844;2022-12-05T13:19:26;19.67;;;10.80;;
53545;SDS011;39432;51.902;10.844;2022-12-05T13:22:05;16.80;;;10.45;;
53545;SDS011;39432;51.902;10.844;2022-12-05T13:24:36;16.80;;;10.43;;
53545;SDS011;39432;51.902;10.844;2022-12-05T13:27:08;22.83;;;11.20;;
53545;SDS011;39432;51.902;10.844;2022-12-05T13:29:47;19.52;;;9.27;;
53545;SDS011;39432;51.902;10.844;2022-12-05T13:32:29;22.38;;;11.50;;
53545;SDS011;39432;51.902;10.844;2022-12-05T13:35:06;20.83;;;8.80;;
53545;SDS011;39432;51.902;10.844;2022-12-05T13:37:46;18.67;;;10.25;;
53545;SDS011;39432;51.902;10.844;2022-12-05T13:40:30;26.70;;;15.55;;
53545;SDS011;39432;51.902;10.844;2022-12-05T13:43:14;27.73;;;15.38;;
53545;SDS011;39432;51.902;10.844;2022-12-05T13:48:40;26.92;;;14.73;;
53545;SDS011;39432;51.902;10.844;2022-12-05T13:51:19;27.88;;;18.42;;
53545;SDS011;39432;51.902;10.844;2022-12-05T13:53:59;42.20;;;14.77;;
53545;SDS011;39432;51.902;10.844;2022-12-05T14:11:17;19.70;;;10.52;;
53545;SDS011;39432;51.902;10.844;2022-12-05T14:13:48;19.75;;;11.15;;
53545;SDS011;39432;51.902;10.844;2022-12-05T14:22:30;29.98;;;13.38;;
53545;SDS011;39432;51.902;10.844;2022-12-05T14:28:35;15.43;;;8.73;;
53545;SDS011;39432;51.902;10.844;2022-12-05T14:31:18;17.75;;;9.63;;
53545;SDS011;39432;51.902;10.844;2022-12-05T14:36:59;11.38;;;7.72;;
53545;SDS011;39432;51.902;10.844;2022-12-05T14:39:37;11.02;;;7.43;;
53545;SDS011;39432;51.902;10.844;2022-12-05T14:42:23;14.50;;;8.15;;
53545;SDS011;39432;51.902;10.844;2022-12-05T14:47:56;11.63;;;7.70;;
53545;SDS011;39432;51.902;10.844;2022-12-05T14:50:38;17.60;;;9.85;;
53545;SDS011;39432;51.902;10.844;2022-12-05T14:53:26;14.82;;;8.85;;
53545;SDS011;39432;51.902;10.844;2022-12-05T14:56:11;16.98;;;9.93;;
53545;SDS011;39432;51.902;10.844;2022-12-05T14:58:45;18.40;;;10.68;;
53545;SDS011;39432;51.902;10.844;2022-12-05T15:01:24;13.45;;;8.70;;
53545;SDS011;39432;51.902;10.844;2022-12-05T15:06:47;10.80;;;7.00;;
53545;SDS011;39432;51.902;10.844;2022-12-05T15:09:26;11.77;;;8.18;;
53545;SDS011;39432;51.902;10.844;2022-12-05T15:12:04;11.27;;;7.18;;
53545;SDS011;39432;51.902;10.844;2022-12-05T15:14:42;13.50;;;8.25;;
53545;SDS011;39432;51.902;10.844;2022-12-05T15:17:20;11.15;;;7.28;;
53545;SDS011;39432;51.902;10.844;2022-12-05T15:19:58;11.65;;;8.13;;
53545;SDS011;39432;51.902;10.844;2022-12-05T15:22:32;10.88;;;7.18;;
53545;SDS011;39432;51.902;10.844;2022-12-05T15:27:59;10.88;;;7.43;;
53545;SDS011;39432;51.902;10.844;2022-12-05T15:30:34;14.27;;;8.00;;
53545;SDS011;39432;51.902;10.844;2022-12-05T15:33:12;13.48;;;8.15;;
53545;SDS011;39432;51.902;10.844;2022-12-05T15:35:42;24.40;;;13.87;;
53545;SDS011;39432;51.902;10.844;2022-12-05T15:38:17;38.72;;;20.05;;
53545;SDS011;39432;51.902;10.844;2022-12-05T15:40:53;67.65;;;31.67;;
53545;SDS011;39432;51.902;10.844;2022-12-05T15:43:27;74.93;;;38.25;;
53545;SDS011;39432;51.902;10.844;2022-12-05T15:46:08;41.35;;;21.73;;
53545;SDS011;39432;51.902;10.844;2022-12-05T15:48:53;29.15;;;16.50;;
53545;SDS011;39432;51.902;10.844;2022-12-05T15:51:27;32.58;;;17.48;;
53545;SDS011;39432;51.902;10.844;2022-12-05T15:54:03;22.58;;;14.23;;
53545;SDS011;39432;51.902;10.844;2022-12-05T15:56:39;21.30;;;12.93;;
53545;SDS011;39432;51.902;10.844;2022-12-05T15:59:15;15.38;;;9.43;;